Time;durP1;ratioP1;P1;durP2;ratioP2;P2;SDS_P1;SDS_P2;PMS_P1;PMS_P2;Temp;Humidity;BMP_temperature;BMP_pressure;BME280_temperature;BME280_humidity;BME280_pressure;Samples;Min_cycle;Max_cycle;Signal;HPM_P1;HPM_P2
2022/09/15 00:02:18;;;;;;;6.57;3.42;;;14.60;99.90;;;;;;5023569;28;20053;-48
2022/09/15 00:04:44;;;;;;;7.97;4.15;;;14.70;99.90;;;;;;5024130;28;20566;-49
2022/09/15 00:07:10;;;;;;;12.20;3.33;;;14.70;99.90;;;;;;5026248;28;20045;-51
2022/09/15 00:09:36;;;;;;;8.68;2.53;;;14.60;99.90;;;;;;5031563;28;20095;-49
2022/09/15 00:12:02;;;;;;;12.75;3.35;;;14.60;99.90;;;;;;5036577;28;20057;-49
2022/09/15 00:14:28;;;;;;;7.82;2.00;;;14.60;99.90;;;;;;5023358;28;20057;-47
2022/09/15 00:16:54;;;;;;;10.73;2.13;;;14.60;99.90;;;;;;5001473;28;20145;-48
2022/09/15 00:19:20;;;;;;;7.70;2.53;;;14.60;99.90;;;;;;5019664;28;20059;-50
2022/09/15 00:21:47;;;;;;;7.00;1.98;;;14.60;99.90;;;;;;5007177;28;20046;-50
2022/09/15 00:24:13;;;;;;;8.57;1.98;;;14.60;99.90;;;;;;5012828;28;20101;-50
2022/09/15 00:26:39;;;;;;;7.63;2.10;;;14.60;99.90;;;;;;5003695;28;20046;-49
2022/09/15 00:29:06;;;;;;;9.45;2.03;;;14.60;99.90;;;;;;5012849;28;20049;-49
2022/09/15 00:31:32;;;;;;;4.88;1.80;;;14.60;99.90;;;;;;5014152;28;20042;-48
2022/09/15 00:34:03;;;;;;;8.40;2.08;;;14.60;99.90;;;;;;5011841;28;20055;-51
2022/09/15 00:36:29;;;;;;;6.75;1.98;;;14.60;99.90;;;;;;5018932;28;20672;-49
2022/09/15 00:38:55;;;;;;;9.60;2.13;;;14.60;99.90;;;;;;5003615;28;20065;-51
2022/09/15 00:41:23;;;;;;;10.45;2.00;;;14.60;99.90;;;;;;5010664;28;20153;-48
2022/09/15 00:44:00;;;;;;;7.50;1.90;;;14.50;99.90;;;;;;5024587;28;20045;-50
2022/09/15 00:46:32;;;;;;;7.70;1.70;;;14.60;99.90;;;;;;5014422;28;20057;-49
2022/09/15 00:49:01;;;;;;;8.77;2.22;;;14.50;99.90;;;;;;5006985;28;20818;-48
2022/09/15 00:51:58;;;;;;;7.18;2.20;;;14.50;99.90;;;;;;5012129;28;20140;-48
2022/09/15 00:54:34;;;;;;;7.75;2.47;;;14.50;99.90;;;;;;5021455;28;20128;-50
2022/09/15 00:57:05;;;;;;;8.88;2.33;;;14.50;99.90;;;;;;5024076;28;20531;-48
2022/09/15 00:59:33;;;;;;;5.70;2.05;;;14.50;99.90;;;;;;5008597;28;20049;-51
2022/09/15 01:02:25;;;;;;;5.72;1.77;;;14.50;99.90;;;;;;5021621;28;20049;-51
2022/09/15 01:04:58;;;;;;;8.45;2.20;;;14.50;99.90;;;;;;5021944;28;20064;-48
2022/09/15 01:07:36;;;;;;;;;;;14.50;99.90;;;;;;5023847;28;20056;-51
2022/09/15 01:10:14;;;;;;;9.65;2.38;;;14.40;99.90;;;;;;5023054;28;19928;-53
2022/09/15 01:12:41;;;;;;;7.55;1.92;;;14.40;99.90;;;;;;5006663;28;20057;-50
2022/09/15 01:15:07;;;;;;;4.97;1.70;;;14.40;99.90;;;;;;5018939;28;20049;-49
2022/09/15 01:17:58;;;;;;;7.55;2.30;;;14.30;99.90;;;;;;5024716;28;20073;-50
2022/09/15 01:20:39;;;;;;;7.90;1.98;;;14.30;99.90;;;;;;5045648;28;20065;-49
2022/09/15 01:23:41;;;;;;;6.93;1.92;;;14.20;99.90;;;;;;5030752;28;20060;-50
2022/09/15 01:26:41;;;;;;;5.20;1.88;;;14.10;99.90;;;;;;5028488;28;20381;-48
2022/09/15 01:29:45;;;;;;;6.80;2.03;;;14.10;99.90;;;;;;5016320;28;20776;-48
2022/09/15 01:35:51;;;;;;;7.05;2.17;;;14.00;99.90;;;;;;5045869;28;19924;-54
2022/09/15 01:38:49;;;;;;;6.53;2.00;;;14.00;99.90;;;;;;5028451;28;20462;-49
2022/09/15 01:41:26;;;;;;;7.85;2.13;;;13.90;99.90;;;;;;5040658;28;20053;-50
2022/09/15 01:44:12;;;;;;;6.55;1.65;;;14.00;99.90;;;;;;5021789;28;20053;-49
2022/09/15 01:46:52;;;;;;;9.88;2.30;;;14.00;99.90;;;;;;5034433;28;20057;-49
2022/09/15 01:49:24;;;;;;;11.18;2.67;;;14.00;99.90;;;;;;5027017;28;20553;-49
2022/09/15 01:51:52;;;;;;;4.68;1.67;;;14.00;99.90;;;;;;5044278;28;20191;-50
2022/09/15 01:54:26;;;;;;;10.48;1.80;;;14.00;99.90;;;;;;5037868;28;20049;-51
2022/09/15 01:56:51;;;;;;;6.32;1.52;;;14.10;99.90;;;;;;5027185;28;20049;-49
2022/09/15 01:59:17;;;;;;;6.93;1.90;;;14.10;99.90;;;;;;5029828;28;20388;-48
2022/09/15 02:01:50;;;;;;;6.22;1.52;;;14.10;99.90;;;;;;5024348;28;20092;-49
2022/09/15 02:04:37;;;;;;;4.50;1.80;;;14.00;99.90;;;;;;5045175;28;20097;-49
2022/09/15 02:07:19;;;;;;;7.05;1.40;;;14.10;99.90;;;;;;5042560;28;20060;-51
2022/09/15 02:10:10;;;;;;;7.03;1.45;;;14.10;99.90;;;;;;5045367;28;20044;-48
2022/09/15 02:12:49;;;;;;;9.38;1.73;;;14.10;99.90;;;;;;5028969;28;20056;-48
2022/09/15 02:15:29;;;;;;;8.60;1.85;;;14.10;99.90;;;;;;5004937;28;20144;-50
2022/09/15 02:17:56;;;;;;;6.70;1.65;;;14.00;99.90;;;;;;5026844;28;20045;-48
2022/09/15 02:20:37;;;;;;;4.82;1.50;;;14.00;99.90;;;;;;5035885;28;20045;-48
2022/09/15 02:23:25;;;;;;;6.38;1.70;;;14.00;99.90;;;;;;5026300;28;20045;-49
2022/09/15 02:25:58;;;;;;;6.85;1.67;;;14.00;99.90;;;;;;5036462;28;20049;-48
2022/09/15 02:28:30;;;;;;;6.32;1.50;;;14.00;99.90;;;;;;5043365;28;20037;-47
2022/09/15 02:30:58;;;;;;;5.55;1.20;;;14.00;99.90;;;;;;5043664;28;20055;-48
2022/09/15 02:33:31;;;;;;;10.18;2.55;;;14.00;99.90;;;;;;5043361;28;20438;-50
2022/09/15 02:36:03;;;;;;;8.55;2.67;;;14.00;99.90;;;;;;5042282;28;20505;-47
2022/09/15 02:38:37;;;;;;;6.25;1.80;;;14.00;99.90;;;;;;5042442;28;20053;-47
2022/09/15 02:41:04;;;;;;;5.50;1.20;;;13.90;99.90;;;;;;5021592;28;20092;-49
2022/09/15 02:43:31;;;;;;;5.13;1.27;;;14.00;99.90;;;;;;5030225;28;20104;-48
2022/09/15 02:45:57;;;;;;;10.27;1.40;;;14.00;99.90;;;;;;5042519;28;20733;-48
2022/09/15 02:48:24;;;;;;;5.80;1.55;;;14.00;99.90;;;;;;5043169;28;20128;-47
2022/09/15 02:50:49;;;;;;;6.65;1.75;;;14.00;99.90;;;;;;5027795;28;20448;-48
2022/09/15 02:53:15;;;;;;;4.97;1.30;;;13.90;99.90;;;;;;5043239;28;20316;-48
2022/09/15 02:55:41;;;;;;;7.07;1.40;;;13.90;99.90;;;;;;5024457;28;20048;-47
2022/09/15 02:58:07;;;;;;;4.75;1.70;;;13.90;99.90;;;;;;5042549;28;20067;-48
2022/09/15 03:00:33;;;;;;;5.88;1.55;;;13.90;99.90;;;;;;5014304;28;20049;-48
2022/09/15 03:02:58;;;;;;;8.20;1.55;;;13.90;99.90;;;;;;5042516;28;20963;-49
2022/09/15 03:05:28;;;;;;;6.75;1.60;;;13.90;99.90;;;;;;5039621;28;20491;-52
2022/09/15 03:07:55;;;;;;;7.85;1.25;;;13.90;99.90;;;;;;5034525;28;20053;-48
2022/09/15 03:10:23;;;;;;;4.97;1.40;;;13.90;99.90;;;;;;5017181;28;20397;-49
2022/09/15 03:12:51;;;;;;;9.63;2.13;;;13.80;99.90;;;;;;5014696;28;20056;-49
2022/09/15 03:15:21;;;;;;;7.85;1.42;;;13.80;99.90;;;;;;5029559;28;20056;-50
2022/09/15 03:17:47;;;;;;;8.57;1.48;;;13.80;99.90;;;;;;5040685;28;20499;-48
2022/09/15 03:20:19;;;;;;;7.45;2.25;;;13.80;99.90;;;;;;5022078;28;20045;-48
2022/09/15 03:22:45;;;;;;;6.82;1.40;;;13.80;99.90;;;;;;5031823;28;20503;-49
2022/09/15 03:25:11;;;;;;;5.75;1.40;;;13.80;99.90;;;;;;5025309;28;20053;-51
2022/09/15 03:27:37;;;;;;;9.52;1.63;;;13.80;99.90;;;;;;5040489;28;20084;-48
2022/09/15 03:30:05;;;;;;;7.78;1.67;;;13.80;99.90;;;;;;5030098;28;20128;-49
2022/09/15 03:32:31;;;;;;;8.50;1.95;;;13.80;99.90;;;;;;5027864;28;20049;-48
2022/09/15 03:34:57;;;;;;;6.18;1.92;;;13.80;99.90;;;;;;5024588;28;20092;-50
2022/09/15 03:37:22;;;;;;;9.40;1.60;;;13.80;99.90;;;;;;5032738;28;20420;-48
2022/09/15 03:39:48;;;;;;;6.00;1.45;;;13.80;99.90;;;;;;5021945;28;20045;-49
2022/09/15 03:42:14;;;;;;;7.25;1.77;;;13.80;99.90;;;;;;5041580;28;20049;-48
2022/09/15 03:44:40;;;;;;;5.93;1.27;;;13.80;99.90;;;;;;5042138;28;20052;-49
2022/09/15 03:47:05;;;;;;;7.55;1.48;;;13.80;99.90;;;;;;5037866;28;20440;-49
2022/09/15 03:49:32;;;;;;;7.72;2.80;;;13.80;99.90;;;;;;5022126;28;20065;-48
2022/09/15 03:51:58;;;;;;;6.22;1.60;;;13.80;99.90;;;;;;5033504;28;20053;-49
2022/09/15 03:54:24;;;;;;;8.57;2.00;;;13.90;99.90;;;;;;5042303;28;20407;-49
2022/09/15 03:56:50;;;;;;;7.20;1.48;;;13.90;99.90;;;;;;5023253;28;20060;-51
2022/09/15 03:59:17;;;;;;;5.65;1.25;;;13.80;99.90;;;;;;5040863;28;20084;-48
2022/09/15 04:01:44;;;;;;;6.25;1.67;;;13.80;99.90;;;;;;5041295;28;20056;-49
2022/09/15 04:04:11;;;;;;;8.93;1.70;;;13.90;99.90;;;;;;5042832;28;20537;-54
2022/09/15 04:06:37;;;;;;;9.25;1.80;;;13.90;99.90;;;;;;5040946;28;20147;-50
2022/09/15 04:09:04;;;;;;;8.40;1.40;;;13.80;99.90;;;;;;5030222;28;20049;-47
2022/09/15 04:11:30;;;;;;;8.27;1.60;;;13.90;99.90;;;;;;5022113;28;20057;-48
2022/09/15 04:13:56;;;;;;;7.63;1.73;;;13.80;99.90;;;;;;5022291;28;20080;-48
2022/09/15 04:16:23;;;;;;;5.60;1.40;;;13.80;99.90;;;;;;5024013;28;20646;-49
2022/09/15 04:18:50;;;;;;;5.93;1.40;;;13.80;99.90;;;;;;5031185;28;20088;-49
2022/09/15 04:21:19;;;;;;;8.43;1.77;;;13.80;99.90;;;;;;5026233;28;20052;-51
2022/09/15 04:23:45;;;;;;;5.90;1.80;;;13.90;99.90;;;;;;5041728;28;20110;-49
2022/09/15 04:26:28;;;;;;;8.93;1.60;;;13.90;99.90;;;;;;5032582;28;20049;-49
2022/09/15 04:28:54;;;;;;;7.43;1.50;;;13.90;99.90;;;;;;5027730;28;20045;-49
2022/09/15 04:31:20;;;;;;;7.25;1.92;;;13.90;99.90;;;;;;5036338;28;20119;-51
2022/09/15 04:33:46;;;;;;;8.52;1.95;;;13.80;99.90;;;;;;5021353;28;20080;-48
2022/09/15 04:36:19;;;;;;;6.22;1.85;;;13.90;99.90;;;;;;5021636;28;20079;-49
2022/09/15 04:38:47;;;;;;;8.20;1.70;;;13.90;99.90;;;;;;5028885;28;20048;-48
2022/09/15 04:41:13;;;;;;;8.18;1.95;;;13.90;99.90;;;;;;5029077;28;20064;-49
2022/09/15 04:43:42;;;;;;;7.75;2.53;;;13.90;99.90;;;;;;5029097;28;20500;-47
2022/09/15 04:46:08;;;;;;;8.65;2.00;;;13.90;99.90;;;;;;5021296;28;20144;-47
2022/09/15 04:48:34;;;;;;;7.97;2.00;;;13.90;99.90;;;;;;5021284;28;20053;-48
2022/09/15 04:51:02;;;;;;;10.07;1.90;;;13.80;99.90;;;;;;5031268;28;20460;-46
2022/09/15 04:53:28;;;;;;;11.20;1.75;;;13.90;99.90;;;;;;5040957;28;20163;-48
2022/09/15 04:56:01;;;;;;;10.68;1.60;;;13.90;99.90;;;;;;5041684;28;20103;-50
2022/09/15 04:58:27;;;;;;;11.32;1.83;;;13.90;99.90;;;;;;5040837;28;20049;-47
2022/09/15 05:00:52;;;;;;;10.55;2.20;;;13.90;99.90;;;;;;5039966;28;20106;-48
2022/09/15 05:03:18;;;;;;;7.18;1.60;;;13.90;99.90;;;;;;5022221;28;20049;-48
2022/09/15 05:05:46;;;;;;;6.93;1.55;;;13.90;99.90;;;;;;5040965;28;20076;-48
2022/09/15 05:08:12;;;;;;;5.75;1.50;;;13.90;99.90;;;;;;5040174;28;20040;-48
2022/09/15 05:10:38;;;;;;;7.47;1.85;;;13.90;99.90;;;;;;5021080;28;20432;-47
2022/09/15 05:13:04;;;;;;;8.02;1.65;;;13.90;99.90;;;;;;5021176;28;20049;-47
2022/09/15 05:15:29;;;;;;;12.50;1.90;;;13.90;99.90;;;;;;5018062;28;20554;-51
2022/09/15 05:17:56;;;;;;;7.10;1.70;;;13.90;99.90;;;;;;5021197;28;20072;-47
2022/09/15 05:20:22;;;;;;;5.32;2.13;;;14.00;99.90;;;;;;5001968;28;20065;-48
2022/09/15 05:22:48;;;;;;;6.88;1.60;;;14.00;99.90;;;;;;5016033;28;20049;-48
2022/09/15 05:25:14;;;;;;;8.00;1.73;;;14.00;99.90;;;;;;5036413;28;20115;-47
2022/09/15 05:27:40;;;;;;;4.60;1.38;;;13.90;99.90;;;;;;5031002;28;20049;-52
2022/09/15 05:30:06;;;;;;;6.53;2.28;;;14.00;99.90;;;;;;5022955;28;20337;-50
2022/09/15 05:32:32;;;;;;;9.93;1.70;;;14.00;99.90;;;;;;5024048;28;20045;-49
2022/09/15 05:34:58;;;;;;;8.27;1.60;;;14.00;99.90;;;;;;5026984;28;20103;-50
2022/09/15 05:37:25;;;;;;;7.93;1.25;;;14.00;99.90;;;;;;5023280;28;20075;-52
2022/09/15 05:39:50;;;;;;;6.18;1.65;;;14.00;99.90;;;;;;5036201;28;20838;-47
2022/09/15 05:42:16;;;;;;;7.13;1.63;;;14.00;99.90;;;;;;5039791;28;20487;-48
2022/09/15 05:44:42;;;;;;;5.97;1.38;;;14.10;99.90;;;;;;5038896;28;20148;-49
2022/09/15 05:47:10;;;;;;;8.38;1.60;;;14.10;99.90;;;;;;5039849;28;20060;-52
2022/09/15 05:49:36;;;;;;;9.27;1.63;;;14.20;99.90;;;;;;5040675;28;20106;-47
2022/09/15 05:52:03;;;;;;;5.75;1.40;;;14.20;99.90;;;;;;5038340;28;20057;-47
2022/09/15 05:54:28;;;;;;;6.50;1.50;;;14.30;99.90;;;;;;5031378;28;20080;-48
2022/09/15 05:56:54;;;;;;;8.43;1.95;;;14.30;99.90;;;;;;5040033;28;20136;-50
2022/09/15 05:59:19;;;;;;;8.52;1.48;;;14.30;99.90;;;;;;5039808;28;20168;-48
2022/09/15 06:01:45;;;;;;;10.45;2.05;;;14.40;99.90;;;;;;5021386;28;20135;-47
2022/09/15 06:04:11;;;;;;;10.10;1.77;;;14.40;99.90;;;;;;5036470;28;20148;-47
2022/09/15 06:06:37;;;;;;;6.47;1.67;;;14.40;99.90;;;;;;5030832;28;20041;-48
2022/09/15 06:09:04;;;;;;;4.72;1.40;;;14.50;99.90;;;;;;5044770;28;20045;-50
2022/09/15 06:11:32;;;;;;;8.15;1.80;;;14.50;99.90;;;;;;5043708;28;20139;-48
2022/09/15 06:13:59;;;;;;;6.07;1.60;;;14.50;99.90;;;;;;5024615;28;20057;-47
2022/09/15 06:16:25;;;;;;;7.60;1.70;;;14.50;99.90;;;;;;5019640;28;20597;-48
2022/09/15 06:18:52;;;;;;;8.55;1.45;;;14.60;99.90;;;;;;5024397;28;20064;-48
2022/09/15 06:21:24;;;;;;;7.32;1.70;;;14.60;99.90;;;;;;5024986;28;20492;-46
2022/09/15 06:23:54;;;;;;;5.88;2.05;;;14.60;99.90;;;;;;5023237;28;20481;-47
2022/09/15 06:26:20;;;;;;;7.03;1.40;;;14.70;99.90;;;;;;5032718;28;20045;-47
2022/09/15 06:28:58;;;;;;;9.35;1.77;;;14.80;99.90;;;;;;5044100;28;20063;-47
2022/09/15 06:31:25;;;;;;;8.80;1.52;;;14.80;99.90;;;;;;5043998;28;20045;-47
2022/09/15 06:33:52;;;;;;;7.97;1.60;;;14.90;99.90;;;;;;5026355;28;20457;-48
2022/09/15 06:36:20;;;;;;;9.10;2.13;;;15.00;99.90;;;;;;5039998;28;20415;-47
2022/09/15 06:38:46;;;;;;;7.05;1.60;;;15.00;99.90;;;;;;5041970;28;20075;-48
2022/09/15 06:41:13;;;;;;;7.80;1.70;;;15.10;99.90;;;;;;5021939;28;20088;-51
2022/09/15 06:43:39;;;;;;;7.88;1.88;;;15.10;99.90;;;;;;5036126;28;20061;-50
2022/09/15 06:46:13;;;;;;;7.18;1.85;;;15.20;99.90;;;;;;5039028;28;20065;-48
2022/09/15 06:48:39;;;;;;;8.07;1.70;;;15.30;99.90;;;;;;5045172;28;20080;-53
2022/09/15 06:51:07;;;;;;;11.13;1.70;;;15.30;99.90;;;;;;5039954;28;20416;-52
2022/09/15 06:53:35;;;;;;;6.55;1.42;;;15.30;99.90;;;;;;5039021;28;20049;-47
2022/09/15 06:56:02;;;;;;;12.02;2.22;;;15.40;99.90;;;;;;5035578;28;20144;-47
2022/09/15 06:58:34;;;;;;;6.05;1.73;;;15.40;99.90;;;;;;5033320;28;20042;-48
2022/09/15 07:01:08;;;;;;;6.75;1.50;;;15.50;99.90;;;;;;5036481;28;20051;-48
2022/09/15 07:03:35;;;;;;;7.28;1.58;;;15.60;99.90;;;;;;5038788;28;20074;-49
2022/09/15 07:06:02;;;;;;;7.20;1.92;;;15.70;99.90;;;;;;5013478;28;20132;-48
2022/09/15 07:08:28;;;;;;;6.88;1.63;;;15.80;99.90;;;;;;5035825;28;20041;-49
2022/09/15 07:10:54;;;;;;;4.65;1.27;;;15.90;99.90;;;;;;5017260;28;20057;-51
2022/09/15 07:13:21;;;;;;;6.30;1.80;;;16.00;99.90;;;;;;5032385;28;20149;-46
2022/09/15 07:15:55;;;;;;;11.93;1.98;;;16.10;99.90;;;;;;5034721;28;20132;-47
2022/09/15 07:18:21;;;;;;;8.52;1.65;;;16.20;99.90;;;;;;5035125;28;20048;-47
2022/09/15 07:20:47;;;;;;;6.18;1.30;;;16.40;99.90;;;;;;5031802;28;20118;-48
2022/09/15 07:23:13;;;;;;;7.80;1.50;;;16.60;99.90;;;;;;5033199;28;20045;-48
2022/09/15 07:25:44;;;;;;;8.20;1.88;;;16.70;99.90;;;;;;5035167;28;20372;-47
2022/09/15 07:28:11;;;;;;;5.32;1.58;;;17.00;99.90;;;;;;5037190;28;20380;-46
2022/09/15 07:30:38;;;;;;;6.05;1.48;;;17.10;99.90;;;;;;5034904;28;20045;-46
2022/09/15 07:33:05;;;;;;;6.68;1.38;;;17.20;99.90;;;;;;5023766;28;20112;-48
2022/09/15 07:35:30;;;;;;;4.32;1.48;;;17.30;99.90;;;;;;5022454;28;20053;-47
2022/09/15 07:37:56;;;;;;;6.85;1.20;;;17.10;99.90;;;;;;5022314;28;20515;-47
2022/09/15 07:40:22;;;;;;;4.93;1.33;;;17.00;99.90;;;;;;5029153;28;20041;-49
2022/09/15 07:42:47;;;;;;;6.85;1.40;;;16.90;99.90;;;;;;5022321;28;20072;-47
2022/09/15 07:45:14;;;;;;;5.78;1.65;;;16.70;99.90;;;;;;5021195;28;20168;-49
2022/09/15 07:47:39;;;;;;;6.40;1.73;;;16.70;99.90;;;;;;5022358;28;20069;-47
2022/09/15 07:50:06;;;;;;;5.63;1.50;;;16.60;99.90;;;;;;5022577;28;20104;-47
2022/09/15 07:52:31;;;;;;;5.30;1.38;;;16.60;99.90;;;;;;5030912;28;20552;-48
2022/09/15 07:54:57;;;;;;;5.45;1.30;;;16.50;99.90;;;;;;5042773;28;20045;-48
2022/09/15 07:57:23;;;;;;;4.85;1.23;;;16.50;99.90;;;;;;5041854;28;20055;-47
2022/09/15 07:59:49;;;;;;;7.93;1.77;;;16.40;99.90;;;;;;5043037;28;20049;-48
2022/09/15 08:02:20;;;;;;;8.45;1.80;;;16.40;99.90;;;;;;5035493;28;20061;-49
2022/09/15 08:04:46;;;;;;;6.18;1.55;;;16.40;99.90;;;;;;5023393;28;20053;-53
2022/09/15 08:07:12;;;;;;;6.20;1.80;;;16.40;99.90;;;;;;5016072;28;20046;-48
2022/09/15 08:09:39;;;;;;;8.75;1.50;;;16.40;99.90;;;;;;5023213;28;20072;-47
2022/09/15 08:12:06;;;;;;;6.85;1.40;;;16.40;99.90;;;;;;5021925;28;20168;-49
2022/09/15 08:14:32;;;;;;;8.77;1.52;;;16.40;99.90;;;;;;5025512;28;20464;-48
2022/09/15 08:17:03;;;;;;;5.38;1.15;;;16.50;99.90;;;;;;5039326;28;20045;-48
2022/09/15 08:19:33;;;;;;;6.80;1.30;;;16.60;99.90;;;;;;5022695;28;20057;-47
2022/09/15 08:22:00;;;;;;;5.28;1.30;;;16.70;99.90;;;;;;5030351;28;20392;-49
2022/09/15 08:24:26;;;;;;;5.68;1.45;;;17.00;99.90;;;;;;5018398;28;20053;-48
2022/09/15 08:26:52;;;;;;;5.72;1.40;;;17.30;99.90;;;;;;5002848;28;20055;-47
2022/09/15 08:29:18;;;;;;;7.68;1.73;;;17.50;99.90;;;;;;5016384;28;20060;-49
2022/09/15 08:31:45;;;;;;;8.93;1.58;;;17.60;99.90;;;;;;5021659;28;20085;-49
2022/09/15 08:34:13;;;;;;;5.25;1.77;;;17.60;99.90;;;;;;5036798;28;20059;-48
2022/09/15 08:36:39;;;;;;;6.35;1.60;;;17.80;99.90;;;;;;5021646;28;20077;-50
2022/09/15 08:39:05;;;;;;;5.65;1.63;;;18.10;99.90;;;;;;5035189;28;20124;-50
2022/09/15 08:41:43;;;;;;;6.45;1.42;;;18.20;99.90;;;;;;5034979;28;20087;-49
2022/09/15 08:44:37;;;;;;;7.32;1.95;;;18.50;99.90;;;;;;5036122;28;20080;-48
2022/09/15 08:47:32;;;;;;;;;;;18.90;99.90;;;;;;5021503;28;20423;-48
2022/09/15 08:50:34;;;;;;;7.97;1.58;;;19.00;99.90;;;;;;5009556;28;20394;-48
2022/09/15 08:53:09;;;;;;;10.48;1.90;;;18.90;99.90;;;;;;4950178;28;20059;-49
2022/09/15 08:55:47;;;;;;;6.07;2.08;;;18.90;99.90;;;;;;4931837;28;20050;-48
2022/09/15 08:58:21;;;;;;;6.60;1.83;;;18.90;99.90;;;;;;4943500;28;20593;-49
2022/09/15 09:00:51;;;;;;;7.32;1.63;;;18.70;99.90;;;;;;4941135;28;20090;-48
2022/09/15 09:03:27;;;;;;;6.43;1.67;;;18.80;99.90;;;;;;4945323;28;20093;-50
2022/09/15 09:05:58;;;;;;;4.22;1.17;;;18.90;99.90;;;;;;4939635;28;20047;-48
2022/09/15 09:08:42;;;;;;;3.03;1.38;;;18.80;99.90;;;;;;4940111;28;20051;-48
2022/09/15 09:11:54;;;;;;;7.25;1.25;;;18.70;99.90;;;;;;4949182;28;20055;-50
2022/09/15 09:14:52;;;;;;;6.60;1.70;;;18.70;99.80;;;;;;4914135;29;20082;-48
2022/09/15 09:18:02;;;;;;;2.75;1.08;;;18.50;99.70;;;;;;4863885;29;20053;-52
2022/09/15 09:20:41;;;;;;;5.28;1.30;;;18.40;99.90;;;;;;4847369;29;20160;-51
2022/09/15 09:23:14;;;;;;;4.35;1.05;;;18.40;99.90;;;;;;4823910;29;20053;-49
2022/09/15 09:25:42;;;;;;;6.35;1.60;;;18.40;99.90;;;;;;4860273;29;20103;-49
2022/09/15 09:28:28;;;;;;;5.40;1.70;;;18.50;99.90;;;;;;4843120;29;20068;-53
2022/09/15 09:30:58;;;;;;;7.28;1.25;;;18.40;99.90;;;;;;4884814;29;20203;-48
2022/09/15 09:33:48;;;;;;;5.43;1.20;;;18.40;99.90;;;;;;4884684;29;20059;-52
2022/09/15 09:36:14;;;;;;;5.95;1.40;;;18.50;99.90;;;;;;4882675;29;20084;-52
2022/09/15 09:38:43;;;;;;;5.65;1.40;;;18.50;99.90;;;;;;4885331;29;20293;-48
2022/09/15 09:41:18;;;;;;;4.57;1.40;;;18.80;99.90;;;;;;4889149;29;20401;-49
2022/09/15 09:43:46;;;;;;;6.72;1.40;;;18.80;99.90;;;;;;4887122;29;20056;-48
2022/09/15 09:46:15;;;;;;;4.30;1.00;;;18.80;99.90;;;;;;4885807;29;20052;-51
2022/09/15 09:49:12;;;;;;;7.45;1.73;;;18.70;99.90;;;;;;4885843;29;20416;-48
2022/09/15 09:51:47;;;;;;;5.75;1.30;;;18.60;99.90;;;;;;4933307;28;20065;-48
2022/09/15 09:54:16;;;;;;;4.07;1.30;;;18.90;99.90;;;;;;4988993;28;20049;-50
2022/09/15 09:56:43;;;;;;;5.90;1.20;;;19.00;99.90;;;;;;5034507;28;20335;-50
2022/09/15 09:59:43;;;;;;;2.97;1.00;;;19.10;99.90;;;;;;5035313;28;20575;-51
2022/09/15 10:02:27;;;;;;;5.97;1.40;;;19.10;99.90;;;;;;5042061;28;20131;-51
2022/09/15 10:05:11;;;;;;;7.30;1.38;;;18.80;99.90;;;;;;5039195;28;20041;-49
2022/09/15 10:07:42;;;;;;;9.35;1.58;;;18.50;99.90;;;;;;5018342;28;20041;-55
2022/09/15 10:10:24;;;;;;;7.43;1.20;;;18.20;99.90;;;;;;5039818;28;20049;-49
2022/09/15 10:12:55;;;;;;;10.00;1.58;;;18.10;99.90;;;;;;5038606;28;20048;-50
2022/09/15 10:15:24;;;;;;;6.80;1.80;;;18.20;99.90;;;;;;5043726;28;20049;-50
2022/09/15 10:17:50;;;;;;;7.38;1.63;;;18.50;99.90;;;;;;5043279;28;20495;-51
2022/09/15 10:20:34;;;;;;;8.88;1.73;;;18.80;99.90;;;;;;5040386;28;20045;-51
2022/09/15 10:23:20;;;;;;;9.57;1.63;;;19.00;99.90;;;;;;5043437;28;20052;-51
2022/09/15 10:25:47;;;;;;;6.97;1.50;;;19.10;99.90;;;;;;5041481;28;20049;-50
2022/09/15 10:28:24;;;;;;;5.78;1.48;;;19.00;99.90;;;;;;5043626;28;20131;-50
2022/09/15 10:31:02;;;;;;;6.65;1.48;;;18.90;99.90;;;;;;5039957;28;20818;-53
2022/09/15 10:33:31;;;;;;;9.45;2.25;;;18.80;99.90;;;;;;5042091;28;20045;-48
2022/09/15 10:36:22;;;;;;;9.02;1.60;;;18.60;99.90;;;;;;5036231;28;20166;-50
2022/09/15 10:38:58;;;;;;;5.85;1.63;;;18.40;99.90;;;;;;5045031;28;20048;-49
2022/09/15 10:41:28;;;;;;;7.03;1.30;;;18.30;99.90;;;;;;5039020;28;20052;-53
2022/09/15 10:44:06;;;;;;;4.32;1.17;;;18.30;99.90;;;;;;5037098;28;20049;-52
2022/09/15 10:46:47;;;;;;;4.72;1.15;;;18.20;99.90;;;;;;5032626;28;20068;-49
2022/09/15 10:49:12;;;;;;;6.47;1.30;;;18.50;99.90;;;;;;5039255;28;20083;-51
2022/09/15 10:52:06;;;;;;;6.32;1.38;;;18.90;99.90;;;;;;5041063;28;20140;-50
2022/09/15 10:55:04;;;;;;;3.95;1.10;;;19.10;99.90;;;;;;5023539;28;20055;-50
2022/09/15 10:57:36;;;;;;;3.72;1.02;;;19.20;99.90;;;;;;5024648;28;20497;-49
2022/09/15 11:00:07;;;;;;;6.25;1.48;;;19.10;99.90;;;;;;5027525;28;20102;-50
2022/09/15 11:02:42;;;;;;;4.80;1.50;;;19.10;99.90;;;;;;5030057;28;20060;-50
2022/09/15 11:05:27;;;;;;;6.88;1.30;;;19.10;99.90;;;;;;5029303;28;20045;-52
2022/09/15 11:08:14;;;;;;;5.32;1.48;;;19.10;99.90;;;;;;5035146;28;20119;-48
2022/09/15 11:11:11;;;;;;;4.43;1.13;;;18.90;99.90;;;;;;5014163;28;20057;-51
2022/09/15 11:13:57;;;;;;;5.88;1.80;;;18.90;99.90;;;;;;5017966;28;20052;-48
2022/09/15 11:16:26;;;;;;;7.63;1.45;;;19.20;99.90;;;;;;5036457;28;20052;-52
2022/09/15 11:19:21;;;;;;;6.15;1.95;;;19.40;99.90;;;;;;5036473;28;20470;-49
2022/09/15 11:21:56;;;;;;;3.83;1.42;;;19.40;99.90;;;;;;5026579;28;20091;-51
2022/09/15 11:24:34;;;;;;;7.03;1.50;;;19.30;99.90;;;;;;5028951;28;20045;-51
2022/09/15 11:27:06;;;;;;;5.80;1.30;;;19.10;99.90;;;;;;5035270;28;20057;-48
2022/09/15 11:29:58;;;;;;;6.40;1.30;;;18.80;99.90;;;;;;5029403;28;20222;-55
2022/09/15 11:32:33;;;;;;;2.90;0.93;;;18.50;99.90;;;;;;5024644;28;20048;-49
2022/09/15 11:35:28;;;;;;;4.18;1.00;;;18.60;99.90;;;;;;5038229;28;20407;-49
2022/09/15 11:38:00;;;;;;;5.03;0.95;;;18.80;99.90;;;;;;5016070;28;20126;-51
2022/09/15 11:40:36;;;;;;;3.22;0.95;;;19.10;99.90;;;;;;5024774;28;20049;-52
2022/09/15 11:43:19;;;;;;;2.55;0.90;;;19.10;99.90;;;;;;5034150;28;20131;-49
2022/09/15 11:46:07;;;;;;;2.28;1.30;;;19.00;99.90;;;;;;5033635;28;20293;-50
2022/09/15 11:48:41;;;;;;;2.45;0.90;;;18.90;99.90;;;;;;5041494;28;20098;-52
2022/09/15 11:51:07;;;;;;;3.72;0.98;;;18.90;99.90;;;;;;5039981;28;20507;-51
2022/09/15 11:53:52;;;;;;;3.38;1.05;;;19.00;99.90;;;;;;5037118;28;20087;-49
2022/09/15 11:56:42;;;;;;;4.85;1.33;;;19.10;99.90;;;;;;5038193;28;20110;-50
2022/09/15 11:59:18;;;;;;;4.65;1.27;;;19.20;99.90;;;;;;5014292;28;20060;-51
2022/09/15 12:01:59;;;;;;;4.72;1.48;;;19.50;99.90;;;;;;5034392;28;20084;-52
2022/09/15 12:04:30;;;;;;;5.13;1.45;;;19.70;99.10;;;;;;5018719;28;20060;-52
2022/09/15 12:07:08;;;;;;;6.00;1.30;;;20.00;99.90;;;;;;5028129;28;20419;-53
2022/09/15 12:09:34;;;;;;;6.68;1.60;;;20.20;99.90;;;;;;5027000;28;20084;-53
2022/09/15 12:12:06;;;;;;;5.38;1.25;;;20.10;99.90;;;;;;5039599;28;20085;-52
2022/09/15 12:14:33;;;;;;;4.40;1.38;;;19.70;99.90;;;;;;5037465;28;20048;-54
2022/09/15 12:17:00;;;;;;;5.22;2.05;;;19.40;99.90;;;;;;5038466;28;20107;-51
2022/09/15 12:19:34;;;;;;;5.35;2.08;;;19.00;99.90;;;;;;5038691;28;20500;-51
2022/09/15 12:22:18;;;;;;;6.15;1.90;;;18.90;99.90;;;;;;5036465;28;20072;-50
2022/09/15 12:24:51;;;;;;;3.55;1.40;;;19.10;99.90;;;;;;5041320;28;20744;-53
2022/09/15 12:27:19;;;;;;;5.35;1.45;;;19.30;99.90;;;;;;5037615;28;20100;-51
2022/09/15 12:29:50;;;;;;;3.88;1.30;;;19.60;99.90;;;;;;5036307;28;20166;-52
2022/09/15 12:32:30;;;;;;;4.90;1.13;;;19.60;99.90;;;;;;5039069;28;20128;-49
2022/09/15 12:35:14;;;;;;;5.90;1.30;;;19.30;99.90;;;;;;5040303;28;20396;-50
2022/09/15 12:37:47;;;;;;;5.53;1.25;;;18.90;99.90;;;;;;5036492;28;20132;-54
2022/09/15 12:40:28;;;;;;;;;;;18.30;99.90;;;;;;5035848;28;20060;-57
2022/09/15 12:42:55;;;;;;;4.25;1.20;;;17.90;99.90;;;;;;5039343;28;20391;-49
2022/09/15 12:45:32;;;;;;;6.30;1.77;;;17.50;99.90;;;;;;5018862;28;20339;-50
2022/09/15 12:48:11;;;;;;;6.70;1.30;;;17.30;99.90;;;;;;5015475;28;20507;-52
2022/09/15 12:50:39;;;;;;;5.90;1.50;;;17.10;99.90;;;;;;5008695;28;20168;-50
2022/09/15 12:53:26;;;;;;;4.53;1.80;;;16.90;99.90;;;;;;5009080;28;20132;-50
2022/09/15 12:55:55;;;;;;;8.32;2.05;;;16.90;99.90;;;;;;5013615;28;20073;-54
2022/09/15 12:58:42;;;;;;;4.15;1.80;;;16.90;99.90;;;;;;5002114;28;20123;-54
2022/09/15 13:01:17;;;;;;;2.33;1.02;;;17.10;99.90;;;;;;5008743;28;20056;-50
2022/09/15 13:03:42;;;;;;;2.50;0.98;;;17.30;99.90;;;;;;5017205;28;20049;-51
2022/09/15 13:06:26;;;;;;;3.28;1.00;;;17.30;99.90;;;;;;5013435;28;20056;-51
2022/09/15 13:08:53;;;;;;;1.63;0.80;;;17.40;99.90;;;;;;5012950;28;20129;-49
2022/09/15 13:11:35;;;;;;;4.22;1.02;;;17.60;99.90;;;;;;5016317;28;20049;-51
2022/09/15 13:14:07;;;;;;;3.37;1.03;;;17.60;99.90;;;;;;5016035;28;20504;-49
2022/09/15 13:16:39;;;;;;;4.03;1.15;;;17.70;99.90;;;;;;5014445;28;20049;-51
2022/09/15 13:19:28;;;;;;;4.22;1.20;;;17.70;99.90;;;;;;5018181;28;20053;-51